Kevin Gutierrez

Scout - Monterrey
17 Jul 2027
Samstag
Verarbeitung

Persönlichkeit

Anpassungsfähigkeit (14) Ehrgeiz (4) Kontroverse (20) Loyalität (4) Druck (16) Professionalität (15) Fairness (3) Temperament (5)

Profil

Trainerstil Demokratisch
Lizenz Kontinentale Pro
Entschlossenheit 12
Menschenführung 5
Motivation 6
Disziplin 5
Arbeitszufriedenheit
65%
Ermüdung
0%
Rolle Scout
Gehalt 94.3K p/W
Vertrag 14.03.2030

Leistung

Verhalten Gut
Trainingseffektivität
40%
Spielerentwicklung
35%
Verletzungsprävention
30%
Taktische Umsetzung
75%

Letzte Ereignisse

Nahm an einer Scouting-Besprechung teil jetzt
Empfahl ein Transferziel jetzt
Spieler begutachtet 7T her
Nahm an einer Scouting-Besprechung teil 7T her
Empfahl ein Transferziel 7T her
Empfahl ein Transferziel 7T her
Empfahl ein Transferziel 7T her
Spieler begutachtet 14T her

Aktuell beobachtet

241
Spieler Verein Status Fähigkeit Vertrauen Beobachtet Zuletzt beobachtet Letzte Stimme
Nico Melamed Almería Aktiv 144 / 136 40% 3 05.07.2027 -
Javi Ontiveros Cádiz Aktiv 136 / 134 40% 2 05.07.2027 -
Toni Fruk Valladolid Aktiv 134 / 140 40% 5 04.07.2027 Beobachten
Unai Vencedor Burgos Aktiv 122 / 140 40% 2 04.07.2027 -
David Larrubia Málaga Aktiv 130 / 133 40% 3 03.07.2027 -
Carlos Álvarez Club America Aktiv 137 / 141 40% 1 03.07.2027 -
José Arnáiz Granada Verloren 139 / 129 40% 3 02.07.2027 -
Marc Cucurella Real Madrid Aktiv 145 / 151 40% 1 02.07.2027 -
Toni Martínez Alavés Aktiv 131 / 141 40% 1 02.07.2027 -
Joe Gelhardt Hull City Aktiv 140 / 138 40% 2 01.07.2027 Mehr Infos nötig
Alejandro Piedrahita Deportivo Pereira Verloren 122 / 123 40% 3 01.07.2027 -
Aune Heggebø West Bromwich Albion Aktiv 115 / 133 40% 2 30.06.2027 -
Leandro Trossard Besiktas Aktiv 148 / 154 40% 2 30.06.2027 -
David Mella Deportivo La Coruña Aktiv 130 / 143 40% 3 28.06.2027 -
Oladapo Afolayan Blackburn Rovers Aktiv 110 / 118 40% 2 27.06.2027 -
Aarón Racing Santander Aktiv 137 / 131 40% 5 27.06.2027 -
Manu Fuster Las Palmas Aktiv 149 / 139 40% 5 26.06.2027 -
Christantus Uche Getafe Aktiv 148 / 148 40% 1 26.06.2027 -
Enzo Loiodice KAA Gent Aktiv 136 / 126 40% 3 25.06.2027 -
Isma Ruiz Córdoba Aktiv 127 / 128 40% 1 25.06.2027 -
Lamine Cissé Peterborough United Aktiv 106 / 130 40% 3 22.06.2027 -
Íñigo Vicente Racing Santander Aktiv 127 / 125 40% 1 22.06.2027 -
Callum O'Hare Sheffield United Aktiv 139 / 128 40% 2 21.06.2027 -
Pablo Santiago Castellón Aktiv 132 / 127 40% 2 21.06.2027 -
Dani Raba Valencia Verloren 138 / 130 40% 1 21.06.2027 -
Diego Pampín Granada Aktiv 123 / 132 40% 2 17.06.2027 -
Adrià Altimira Deportivo La Coruña Aktiv 121 / 139 40% 2 17.06.2027 -
Lucas Ribeiro Cultural Leonesa Aktiv 133 / 133 40% 4 16.06.2027 -
Sergio Falcao Cortulua Verloren 123 / 129 40% 1 14.06.2027 -
Riki Deportivo La Coruña Aktiv 129 / 121 40% 2 12.06.2027 -
Adrián Niño Málaga Aktiv 113 / 118 40% 1 12.06.2027 -
Jon Morcillo Almería Aktiv 148 / 137 40% 4 11.06.2027 -
Domagoj Drožđek Tractor Aktiv 147 / 123 40% 1 11.06.2027 -
Iñigo Córdoba Castellón Aktiv 140 / 127 40% 1 11.06.2027 -
Álex Lizancos Burgos Aktiv 115 / 134 40% 1 10.06.2027 -
Diego Lainez Tigres Aktiv 131 / 136 40% 1 10.06.2027 -
Jack McGlynn Stoke City Aktiv 135 / 131 40% 3 09.06.2027 -
Raúl Moro Osasuna Aktiv 159 / 137 40% 1 08.06.2027 -
Marvin Park Las Palmas Aktiv 118 / 124 40% 1 08.06.2027 -
Iñaki Williams Athletic Bilbao Aktiv 147 / 154 40% 2 06.06.2027 -
Ezequiel Ponce Elche Aktiv 124 / 132 40% 1 06.06.2027 -
Yanis Begraoui Estoril Praia Aktiv 138 / 136 40% 2 03.06.2027 -
Abdallah Sima RC Lens Aktiv 139 / 128 40% 1 02.06.2027 -
Alexey Miranchuk RC Strasbourg Aktiv 129 / 134 40% 1 02.06.2027 -
Raúl Rangel Brighton Aktiv 132 / 132 66% 1 01.06.2027 Befürworten
Marcel Ruiz Brentford Aktiv 140 / 141 66% 1 01.06.2027 Befürworten
Richard Ledezma River Plate Aktiv 134 / 135 67% 1 01.06.2027 Befürworten
Paulinho Toluca Aktiv 138 / 142 51% 1 01.06.2027 -
Hirving Lozano San Diego Football Club Aktiv 127 / 128 40% 1 31.05.2027 -
Iván Gil Eibar Aktiv 109 / 122 40% 2 30.05.2027 -
Carlos Neva Albacete Aktiv 116 / 132 40% 2 30.05.2027 -
Fran Pérez Rayo Vallecano Aktiv 134 / 134 40% 1 29.05.2027 -
Ángel Correa River Plate Verloren 153 / 140 40% 1 29.05.2027 Mehr Infos nötig
Uriel Antuna Pumas UNAM Aktiv 144 / 134 40% 4 28.05.2027 -
Sandro Las Palmas Aktiv 120 / 125 40% 1 28.05.2027 -
Welington Southampton Aktiv 142 / 136 40% 2 24.05.2027 -
Edu Expósito Espanyol Aktiv 152 / 141 40% 1 24.05.2027 -
Alex Valera Universitario Aktiv 118 / 124 40% 1 24.05.2027 -
Wesley Saïd RC Lens Aktiv 120 / 138 40% 2 22.05.2027 -
Óscar Aranda Getafe Aktiv 148 / 127 40% 1 22.05.2027 -
Manu Morlanes Mallorca Aktiv 141 / 139 40% 1 19.05.2027 -
Koki Saito Queens Park Rangers Aktiv 137 / 130 40% 2 18.05.2027 -
Ilyas Ansah Hull City Aktiv 136 / 137 40% 4 17.05.2027 -
Jonas Wind Braga Aktiv 130 / 126 40% 1 15.05.2027 -
Sebastián Córdova Pumas UNAM Aktiv 135 / 127 40% 4 14.05.2027 -
Ilyas Chaira Oviedo Aktiv 118 / 128 40% 2 14.05.2027 -
Adu Ares Eibar Aktiv 120 / 129 40% 2 14.05.2027 -
Zizo Al Ahly Aktiv 135 / 139 40% 1 14.05.2027 -
Umar Sadiq Valencia Aktiv 122 / 143 40% 3 12.05.2027 -
Joaquín Correa Estudiantes Aktiv 126 / 126 40% 1 12.05.2027 -
Enric Franquesa Leganés Aktiv 142 / 127 40% 1 10.05.2027 -
Enrique Clemente Las Palmas Aktiv 119 / 124 40% 1 10.05.2027 -
Ander Guevara Alavés Aktiv 150 / 136 40% 2 08.05.2027 -
Javi Martínez Eibar Aktiv 149 / 136 40% 1 08.05.2027 -
Zeidane Inoussa Swansea City Aktiv 121 / 122 40% 1 08.05.2027 -
Carlos Vicente Udinese Aktiv 137 / 140 40% 1 06.05.2027 -
Yusi Alavés Aktiv 130 / 126 40% 1 04.05.2027 -
Lucas Boyé Alavés Aktiv 120 / 128 40% 2 03.05.2027 -
Pejiño Eibar Aktiv 132 / 128 40% 1 03.05.2027 -
Daijiro Chirino Almería Aktiv 114 / 125 40% 1 03.05.2027 -
Marc Roca Betis Aktiv 144 / 140 40% 1 03.05.2027 -
Youssef En-Nesyri Al-Ittihad Aktiv 150 / 139 40% 2 01.05.2027 -
Santiago Sanchez Santa Fe Aktiv 135 / 131 40% 1 29.04.2027 -
Guille Rosas Gijón Aktiv 149 / 141 40% 1 28.04.2027 -
Orri Óskarsson Real Sociedad Aktiv 136 / 131 40% 1 27.04.2027 -
Fábio Carvalho Brentford Aktiv 137 / 148 40% 1 26.04.2027 -
Konan N'Dri Lecce Aktiv 145 / 121 40% 1 23.04.2027 -
Aitor Ruibal Betis Aktiv 129 / 139 40% 1 21.04.2027 -
Pedro de la Vega Leganés Aktiv 132 / 128 40% 1 19.04.2027 -
Fashion Sakala MC Alger Aktiv 117 / 131 40% 1 18.04.2027 -
Sebas Moyano Zaragoza Aktiv 126 / 126 40% 1 16.04.2027 -
Urko Izeta Cádiz Aktiv 115 / 127 40% 1 16.04.2027 -
Oussama Idrissi Ferencvaros Aktiv 138 / 147 40% 4 15.04.2027 -
Kenny Tete Fulham Aktiv 123 / 141 40% 1 15.04.2027 -
Wilson Isidor Sunderland Aktiv 155 / 142 40% 1 15.04.2027 -
Romain Del Castillo Osasuna Aktiv 117 / 139 40% 1 15.04.2027 -
Mario Soriano Deportivo La Coruña Aktiv 145 / 126 40% 1 13.04.2027 -
Diego López Valencia Aktiv 129 / 144 40% 1 13.04.2027 -
Helinho Toluca Verloren 140 / 130 40% 4 10.04.2027 -
Ezequiel Bullaude Santos Laguna Aktiv 125 / 123 40% 2 09.04.2027 -
Miguel Rodríguez Alavés Aktiv 114 / 128 40% 1 08.04.2027 -
Alemão Rayo Vallecano Aktiv 119 / 133 40% 1 07.04.2027 -
Ryoya Morishita Blackburn Rovers Aktiv 122 / 119 40% 2 06.04.2027 -
Erik Lira Cruz Azul Aktiv 150 / 129 40% 4 05.04.2027 -
Ronald Swansea City Aktiv 133 / 129 40% 1 05.04.2027 -
Mattéo Tramoni Pisa Aktiv 119 / 135 40% 2 04.04.2027 -
João Carvalho Estoril Praia Aktiv 141 / 127 40% 2 04.04.2027 -
Demarai Gray Birmingham Aktiv 145 / 121 40% 3 04.04.2027 -
Luis Quintero Torreense Aktiv 144 / 117 40% 1 04.04.2027 -
Mama Baldé Stade Brestois Aktiv 133 / 136 40% 1 02.04.2027 -
Václav Černý Besiktas Aktiv 140 / 132 40% 1 01.04.2027 -
Álex Valle Como Aktiv 153 / 145 40% 1 01.04.2027 -
Juan Pablo Domínguez Leon Aktiv 123 / 122 40% 2 30.03.2027 -
Jérémy Livolant Casa Pia Aktiv 130 / 116 40% 1 30.03.2027 -
Finn Azaz Southampton Aktiv 140 / 127 40% 3 29.03.2027 -
Hwang Hee-Chan Wolverhampton Aktiv 127 / 125 40% 2 28.03.2027 -
Diber Cambindo Leon Aktiv 126 / 124 40% 1 28.03.2027 -
Brian Gutiérrez Guadalajara Aktiv 134 / 129 40% 1 27.03.2027 -
Agustín Palavecino Cruz Azul Aktiv 147 / 142 40% 2 25.03.2027 -
Gerónimo Rivera Al Wahda Aktiv 134 / 123 40% 1 25.03.2027 -
Milot Rashica Besiktas Aktiv 128 / 133 40% 1 25.03.2027 -
Juninho Pumas UNAM Aktiv 139 / 127 40% 1 23.03.2027 -
Leon Bailey Olympiacos Aktiv 138 / 131 40% 3 20.03.2027 -
Jack Rudoni Coventry City Aktiv 128 / 125 40% 2 19.03.2027 -
Shea Charles Southampton Aktiv 144 / 141 40% 4 19.03.2027 -
Bryan González Guadalajara Aktiv 119 / 134 48% 3 17.03.2027 -
Ramón Terrats Getafe Aktiv 122 / 133 40% 2 15.03.2027 -
Steven Bergwijn Al-Ittihad Aktiv 167 / 146 40% 1 15.03.2027 -
Santi García Gil Vicente Aktiv 121 / 138 40% 1 14.03.2027 -
Sidny Lopes Cabral Trabzonspor Aktiv 153 / 128 40% 1 13.03.2027 -
Christian Krasnodar Aktiv 150 / 130 40% 4 12.03.2027 -
Mateo Cassierra Atlético Mineiro Aktiv 139 / 135 40% 1 11.03.2027 -
Henry Mosquera Bragantino Aktiv 122 / 128 40% 1 10.03.2027 -
Richard Koné Queens Park Rangers Aktiv 135 / 128 40% 2 09.03.2027 -
Sam Greenwood Bristol City Aktiv 129 / 122 40% 1 09.03.2027 -
Tomáš Chorý Spartak Moscow Verloren 162 / 147 40% 1 09.03.2027 -
Luca Orellano Atlético Madrid Aktiv 138 / 137 40% 2 07.03.2027 -
Ramón Juárez Club America Aktiv 138 / 133 40% 2 06.03.2027 -
Sergio Barreto Pachuca Aktiv 125 / 129 40% 3 06.03.2027 -
Lucas Torreira Galatasaray Aktiv 147 / 144 40% 1 04.03.2027 -
Adriano Bertaccini Anderlecht Aktiv 111 / 116 40% 3 01.03.2027 -
Jeon Jin-Woo Sheffield Wednesday Aktiv 115 / 123 40% 2 01.03.2027 -
Alejandro Zendejas Club America Aktiv 154 / 138 40% 2 27.02.2027 -
Ollie Watkins Al-Hilal Aktiv 166 / 149 40% 1 27.02.2027 -
Giovani Lo Celso AC Milan Aktiv 140 / 149 40% 1 24.02.2027 -
Jesús Ricardo Angulo Toluca Aktiv 120 / 138 40% 1 24.02.2027 -
Luke McNally Bristol City Aktiv 150 / 125 40% 1 23.02.2027 -
Jacob Greaves Ipswich Town Aktiv 134 / 138 40% 1 23.02.2027 -
Prosper Obah Shakhtar Aktiv 147 / 135 40% 1 20.02.2027 -
Leandro Godoy CSKA Sofia Aktiv 117 / 125 40% 1 20.02.2027 -
Adam Randell Bristol City Aktiv 108 / 129 40% 2 19.02.2027 -
Bruno Méndez Toluca Aktiv 124 / 124 40% 3 19.02.2027 -
Alexis Vega Famalicao Aktiv 165 / 145 40% 1 18.02.2027 -
Stephen Eustáquio Swansea City Aktiv 124 / 131 40% 1 16.02.2027 -
Everton Cebolinha Farense Aktiv 112 / 125 40% 1 16.02.2027 -
Santiago Pierotti Lecce Aktiv 127 / 129 40% 2 15.02.2027 -
Marcelo Flores Tigres Aktiv 123 / 119 40% 4 15.02.2027 -
Bobby Thomas Coventry City Aktiv 116 / 141 40% 1 15.02.2027 -
Kerem Aktürkoğlu Fenerbahce Aktiv 124 / 140 40% 4 14.02.2027 -
Nemanja Radonjić Crvena Zvezda Aktiv 131 / 134 40% 1 11.02.2027 -
Bright Arrey-Mbi Braga Aktiv 143 / 133 40% 2 10.02.2027 -
Mario Dorgeles Braga Aktiv 131 / 129 40% 1 10.02.2027 -
Florentino Luís Ipswich Town Aktiv 147 / 132 40% 3 09.02.2027 -
Oliver Skipp Leicester City Aktiv 117 / 124 40% 1 08.02.2027 -
Eliás Montiel Atlético Madrid Aktiv 121 / 132 40% 1 08.02.2027 -
Alexandro Bernabei Internacional Aktiv 134 / 129 40% 3 07.02.2027 -
Kaveh Azmoun Siah Jamegan Aktiv 118 / 133 40% 1 05.02.2027 -
Nazareno Colombo Racing Club Aktiv 120 / 128 40% 1 27.01.2027 -
Ilay Camara Anderlecht Aktiv 140 / 131 40% 3 22.01.2027 -
Jesús Orozco Chiquete Cruz Azul Aktiv 137 / 126 40% 1 22.01.2027 -
Florián Monzón Atlas Aktiv 111 / 121 40% 3 18.01.2027 -
Tyrese Campbell Sheffield United Aktiv 128 / 134 40% 1 17.01.2027 -
Mihailo Ivanović Millwall Aktiv 135 / 116 40% 1 13.01.2027 -
Radek Vítek Middlesbrough Aktiv 140 / 137 40% 1 11.01.2027 -
Mauro Silveira Junior Aktiv 112 / 115 40% 1 11.01.2027 -
Alberto Costa Porto Aktiv 128 / 137 40% 1 10.01.2027 -
Felipe Peña Biafore Lanús Aktiv 116 / 123 40% 1 09.01.2027 -
Alexis Cuello San Lorenzo Aktiv 135 / 120 40% 4 08.01.2027 -
Ignacio Russo Tigre Aktiv 123 / 119 40% 1 08.01.2027 -
Max Johnston Derby County Aktiv 129 / 126 40% 1 04.01.2027 -
Harry Clarke Preston Aktiv 113 / 136 40% 1 01.01.2027 -
Matías Giménez Rojas Argentinos Juniors Aktiv 126 / 121 40% 3 29.12.2026 -
Geny Sporting CP Aktiv 134 / 145 40% 1 28.12.2026 -
Ayrton Costa Boca Juniors Aktiv 123 / 126 40% 3 27.12.2026 -
Mohamed Belloumi Hull City Aktiv 114 / 128 40% 1 26.12.2026 -
Franco Romero Toluca Verloren 131 / 121 40% 1 24.12.2026 -
Tobias Bech AGF Aktiv 149 / 137 40% 1 22.12.2026 -
Facundo Pellistri Panathinaikos Aktiv 152 / 120 40% 1 20.12.2026 -
Yousef Salech Cardiff City Aktiv 147 / 116 40% 1 15.12.2026 -
Patrick Agyemang Derby County Aktiv 111 / 117 40% 1 15.12.2026 -
Dom Ballard Leyton Orient Aktiv 125 / 130 40% 1 13.12.2026 -
Jovon Makama Norwich City Aktiv 120 / 133 40% 1 12.12.2026 -
Jay Stansfield Birmingham Aktiv 124 / 120 40% 1 08.12.2026 -
Imrân Louza Watford Aktiv 134 / 123 40% 1 05.12.2026 -
Alessio Zerbin Frosinone Aktiv 122 / 130 40% 1 02.12.2026 -
Rumarn Burrell Queens Park Rangers Aktiv 141 / 120 40% 2 01.12.2026 -
Xavier Biscayzacú Sporting CP Aktiv 121 / 135 40% 2 01.12.2026 -
Lautaro Di Lollo Boca Juniors Aktiv 138 / 125 40% 1 01.12.2026 -
Marcus Holmgren Pedersen Olympiacos Aktiv 123 / 137 40% 1 29.11.2026 -
Federico Navarro Rosario Central Aktiv 116 / 121 40% 1 29.11.2026 -
Eduard Spertsyan Al-Ahli Aktiv 131 / 131 40% 2 25.11.2026 -
Håkon Evjen Bodo/Glimt Aktiv 152 / 137 40% 3 22.11.2026 -
Troy Parrott Betis Aktiv 150 / 147 40% 4 20.11.2026 -
Favio Cabral Mitre Aktiv 111 / 115 40% 2 20.11.2026 -
Juan Carlos Portillo River Plate Aktiv 128 / 130 40% 1 18.11.2026 -
Marquinhos Spartak Moscow Aktiv 119 / 137 40% 1 17.11.2026 -
Valentín Barco Chelsea Aktiv 152 / 144 40% 2 14.11.2026 -
Andrea Colpani Monza Aktiv 130 / 142 40% 1 14.11.2026 -
Marco Pellegrino Boca Juniors Aktiv 126 / 125 40% 1 14.11.2026 -
Elías Torres Racing Club Aktiv 119 / 126 40% 2 07.11.2026 -
David Miculescu FCSB Aktiv 131 / 112 40% 1 06.11.2026 -
Jefry Zapata Once Caldas Aktiv 121 / 116 40% 3 02.11.2026 -
Blas Armoa Gimnasia y Esgrima Aktiv 116 / 116 40% 1 31.10.2026 -
Alexander Díaz Deportivo Riestra Aktiv 106 / 116 40% 2 30.10.2026 -
Dejan Joveljić Seattle Sounders Aktiv 136 / 124 40% 1 30.10.2026 -
George Hirst Stoke City Aktiv 135 / 123 40% 1 28.10.2026 -
Aníbal Moreno River Plate Aktiv 133 / 136 40% 1 25.10.2026 -
Pablo Solari Spartak Moscow Aktiv 118 / 128 40% 1 23.10.2026 -
Tomás Chancalay Minnesota United FC Aktiv 138 / 128 40% 2 19.10.2026 -
Alejo Cruz Juventud Aktiv 106 / 115 40% 1 18.10.2026 -
Alan Velasco Boca Juniors Aktiv 120 / 134 40% 2 17.10.2026 -
Clemente Montes Universidad Catolica Aktiv 127 / 126 40% 1 17.10.2026 -
Paxten Aaronson Colorado Rapids Aktiv 120 / 137 40% 1 16.10.2026 -
Bazoumana Touré Newcastle United Aktiv 149 / 147 40% 1 13.10.2026 -
Nicolò Cambiaghi Bologna Aktiv 131 / 144 40% 1 12.10.2026 -
Franco Ibarra Rosario Central Aktiv 131 / 126 40% 1 08.10.2026 -
Luciano Cosentino Wanderers Aktiv 118 / 118 40% 1 08.10.2026 -
Tadeo Allende Inter Miami CF Aktiv 115 / 125 40% 1 03.10.2026 -
Luca Langoni New England Revolution Aktiv 126 / 127 40% 1 27.09.2026 -
Brandon Vázquez Austin FC Aktiv 127 / 115 40% 1 27.09.2026 -
Yacine Adli Al-Shabab Aktiv 150 / 137 40% 1 26.09.2026 -
Josh Sargent Toronto FC Aktiv 129 / 127 40% 1 22.09.2026 -
Jesus Ferreira Seattle Sounders Aktiv 133 / 133 40% 1 18.09.2026 -
Gedson Fernandes Spartak Moscow Aktiv 119 / 128 40% 2 15.09.2026 -
Tiago Djaló Besiktas Aktiv 124 / 129 40% 1 07.09.2026 -
Igor Nikić Lech Aktiv 132 / 125 40% 1 26.08.2026 -
Marvin Keller Racing Genk Aktiv 149 / 140 40% 1 25.08.2026 -
CJ dos Santos San Diego Football Club Aktiv 112 / 110 40% 1 18.08.2026 -
Diego Romero Universitario Aktiv 126 / 115 40% 1 18.08.2026 -
Juan David Cabal Juventus Aktiv 118 / 135 40% 1 05.08.2026 -
Luke Shaw Manchester United Aktiv 154 / 156 40% 1 01.08.2026 -